sensor_id;sensor_type;location;lat;lon;timestamp;pressure;altitude;pressure_sealevel;temperature;humidity
7834;BME280;3962;42.696;23.354;2023-04-04T00:00:40;93755.19;;;8.01;100.00
7834;BME280;3962;42.696;23.354;2023-04-04T00:03:07;93750.72;;;8.01;100.00
7834;BME280;3962;42.696;23.354;2023-04-04T00:05:34;93757.00;;;8.00;100.00
7834;BME280;3962;42.696;23.354;2023-04-04T00:08:02;93758.00;;;8.07;100.00
7834;BME280;3962;42.696;23.354;2023-04-04T00:10:29;93762.94;;;8.18;100.00
7834;BME280;3962;42.696;23.354;2023-04-04T00:12:58;93754.13;;;8.18;100.00
7834;BME280;3962;42.696;23.354;2023-04-04T00:15:25;93757.16;;;8.23;100.00
7834;BME280;3962;42.696;23.354;2023-04-04T00:17:52;93752.31;;;8.18;100.00
7834;BME280;3962;42.696;23.354;2023-04-04T00:20:19;93767.59;;;8.24;100.00
7834;BME280;3962;42.696;23.354;2023-04-04T00:22:46;93768.06;;;8.28;100.00
7834;BME280;3962;42.696;23.354;2023-04-04T00:25:14;93771.03;;;8.33;100.00
7834;BME280;3962;42.696;23.354;2023-04-04T00:27:41;93761.09;;;8.35;100.00
7834;BME280;3962;42.696;23.354;2023-04-04T00:30:09;93769.19;;;8.41;100.00
7834;BME280;3962;42.696;23.354;2023-04-04T00:32:36;93755.09;;;8.41;100.00
7834;BME280;3962;42.696;23.354;2023-04-04T00:35:03;93751.94;;;8.37;100.00
7834;BME280;3962;42.696;23.354;2023-04-04T00:37:30;93759.41;;;8.42;100.00
7834;BME280;3962;42.696;23.354;2023-04-04T00:39:57;93755.41;;;8.46;100.00
7834;BME280;3962;42.696;23.354;2023-04-04T00:42:26;93748.31;;;8.46;100.00
7834;BME280;3962;42.696;23.354;2023-04-04T00:44:53;93733.09;;;8.40;100.00
7834;BME280;3962;42.696;23.354;2023-04-04T00:47:21;93729.09;;;8.36;100.00
7834;BME280;3962;42.696;23.354;2023-04-04T00:49:48;93724.16;;;8.33;100.00
7834;BME280;3962;42.696;23.354;2023-04-04T00:52:15;93723.69;;;8.30;100.00
7834;BME280;3962;42.696;23.354;2023-04-04T00:54:42;93717.91;;;8.26;100.00
7834;BME280;3962;42.696;23.354;2023-04-04T00:57:09;93719.69;;;8.26;100.00
7834;BME280;3962;42.696;23.354;2023-04-04T00:59:38;93710.44;;;8.30;100.00
7834;BME280;3962;42.696;23.354;2023-04-04T01:02:05;93718.84;;;8.33;100.00
7834;BME280;3962;42.696;23.354;2023-04-04T01:04:32;93723.16;;;8.34;100.00
7834;BME280;3962;42.696;23.354;2023-04-04T01:06:59;93724.00;;;8.35;100.00
7834;BME280;3962;42.696;23.354;2023-04-04T01:09:26;93725.66;;;8.36;100.00
7834;BME280;3962;42.696;23.354;2023-04-04T01:11:54;93726.28;;;8.38;100.00
7834;BME280;3962;42.696;23.354;2023-04-04T01:14:22;93737.22;;;8.43;100.00
7834;BME280;3962;42.696;23.354;2023-04-04T01:16:50;93728.91;;;8.46;100.00
7834;BME280;3962;42.696;23.354;2023-04-04T01:19:23;93728.38;;;8.50;100.00
7834;BME280;3962;42.696;23.354;2023-04-04T01:21:52;93722.41;;;8.56;100.00
7834;BME280;3962;42.696;23.354;2023-04-04T01:24:20;93739.81;;;8.59;100.00
7834;BME280;3962;42.696;23.354;2023-04-04T01:26:50;93738.25;;;8.72;100.00
7834;BME280;3962;42.696;23.354;2023-04-04T01:29:16;93732.63;;;8.67;100.00
7834;BME280;3962;42.696;23.354;2023-04-04T01:31:48;93728.34;;;8.58;100.00
7834;BME280;3962;42.696;23.354;2023-04-04T01:34:25;93743.13;;;8.53;100.00
7834;BME280;3962;42.696;23.354;2023-04-04T01:37:05;93740.13;;;8.56;100.00
7834;BME280;3962;42.696;23.354;2023-04-04T01:39:37;93734.97;;;8.62;100.00
7834;BME280;3962;42.696;23.354;2023-04-04T01:42:07;93728.00;;;8.69;100.00
7834;BME280;3962;42.696;23.354;2023-04-04T01:44:35;93734.69;;;8.80;100.00
7834;BME280;3962;42.696;23.354;2023-04-04T01:47:04;93728.22;;;8.82;100.00
7834;BME280;3962;42.696;23.354;2023-04-04T01:49:33;93729.97;;;8.67;100.00
7834;BME280;3962;42.696;23.354;2023-04-04T01:52:00;93720.97;;;8.76;100.00
7834;BME280;3962;42.696;23.354;2023-04-04T01:54:27;93723.03;;;8.89;100.00
7834;BME280;3962;42.696;23.354;2023-04-04T01:56:54;93723.03;;;8.97;100.00
7834;BME280;3962;42.696;23.354;2023-04-04T01:59:23;93706.69;;;8.85;100.00
7834;BME280;3962;42.696;23.354;2023-04-04T02:01:50;93701.63;;;8.68;100.00
7834;BME280;3962;42.696;23.354;2023-04-04T02:04:17;93688.28;;;8.53;100.00
7834;BME280;3962;42.696;23.354;2023-04-04T02:06:44;93696.09;;;8.47;100.00
7834;BME280;3962;42.696;23.354;2023-04-04T02:09:11;93702.56;;;8.44;100.00
7834;BME280;3962;42.696;23.354;2023-04-04T02:11:37;93708.38;;;8.40;100.00
7834;BME280;3962;42.696;23.354;2023-04-04T02:14:04;93697.34;;;8.28;100.00
7834;BME280;3962;42.696;23.354;2023-04-04T02:16:32;93698.34;;;8.27;100.00
7834;BME280;3962;42.696;23.354;2023-04-04T02:18:59;93703.00;;;8.25;100.00
7834;BME280;3962;42.696;23.354;2023-04-04T02:21:26;93703.16;;;8.24;100.00
7834;BME280;3962;42.696;23.354;2023-04-04T02:23:53;93697.06;;;8.23;100.00
7834;BME280;3962;42.696;23.354;2023-04-04T02:26:19;93698.38;;;8.19;100.00
7834;BME280;3962;42.696;23.354;2023-04-04T02:28:46;93698.06;;;8.22;100.00
7834;BME280;3962;42.696;23.354;2023-04-04T02:31:13;93691.91;;;8.22;100.00
7834;BME280;3962;42.696;23.354;2023-04-04T02:33:41;93690.44;;;8.19;100.00
7834;BME280;3962;42.696;23.354;2023-04-04T02:36:08;93684.97;;;8.21;100.00
7834;BME280;3962;42.696;23.354;2023-04-04T02:38:36;93681.47;;;8.20;100.00
7834;BME280;3962;42.696;23.354;2023-04-04T02:41:03;93688.09;;;8.24;100.00
7834;BME280;3962;42.696;23.354;2023-04-04T02:43:30;93690.06;;;8.30;100.00
7834;BME280;3962;42.696;23.354;2023-04-04T02:45:57;93692.00;;;8.36;100.00
7834;BME280;3962;42.696;23.354;2023-04-04T02:48:23;93699.47;;;8.33;100.00
7834;BME280;3962;42.696;23.354;2023-04-04T02:50:53;93702.81;;;8.35;100.00
7834;BME280;3962;42.696;23.354;2023-04-04T02:53:20;93700.13;;;8.43;100.00
7834;BME280;3962;42.696;23.354;2023-04-04T02:55:46;93699.59;;;8.47;100.00
7834;BME280;3962;42.696;23.354;2023-04-04T02:58:13;93700.06;;;8.51;100.00
7834;BME280;3962;42.696;23.354;2023-04-04T03:00:40;93698.44;;;8.50;100.00
7834;BME280;3962;42.696;23.354;2023-04-04T03:03:07;93698.91;;;8.45;100.00
7834;BME280;3962;42.696;23.354;2023-04-04T03:05:34;93686.88;;;8.43;100.00
7834;BME280;3962;42.696;23.354;2023-04-04T03:08:02;93691.84;;;8.38;100.00
7834;BME280;3962;42.696;23.354;2023-04-04T03:10:29;93690.41;;;8.27;100.00
7834;BME280;3962;42.696;23.354;2023-04-04T03:12:56;93699.19;;;8.28;100.00
7834;BME280;3962;42.696;23.354;2023-04-04T03:15:23;93697.06;;;8.23;100.00
7834;BME280;3962;42.696;23.354;2023-04-04T03:17:51;93695.06;;;8.25;100.00
7834;BME280;3962;42.696;23.354;2023-04-04T03:20:18;93696.06;;;8.24;100.00
7834;BME280;3962;42.696;23.354;2023-04-04T03:22:46;93703.31;;;8.30;100.00
7834;BME280;3962;42.696;23.354;2023-04-04T03:25:15;93701.31;;;8.32;100.00
7834;BME280;3962;42.696;23.354;2023-04-04T03:27:41;93701.59;;;8.37;100.00
7834;BME280;3962;42.696;23.354;2023-04-04T03:30:09;93706.59;;;8.40;100.00
7834;BME280;3962;42.696;23.354;2023-04-04T03:32:36;93707.38;;;8.41;100.00
7834;BME280;3962;42.696;23.354;2023-04-04T03:35:04;93702.41;;;8.46;100.00
7834;BME280;3962;42.696;23.354;2023-04-04T03:37:31;93703.91;;;8.48;100.00
7834;BME280;3962;42.696;23.354;2023-04-04T03:39:58;93696.59;;;8.50;100.00
7834;BME280;3962;42.696;23.354;2023-04-04T03:42:26;93691.44;;;8.49;100.00
7834;BME280;3962;42.696;23.354;2023-04-04T03:44:53;93695.44;;;9.65;100.00
7834;BME280;3962;42.696;23.354;2023-04-04T03:47:20;93705.25;;;9.65;100.00
7834;BME280;3962;42.696;23.354;2023-04-04T03:49:47;93702.31;;;9.37;100.00
7834;BME280;3962;42.696;23.354;2023-04-04T03:52:16;93710.94;;;9.17;100.00
7834;BME280;3962;42.696;23.354;2023-04-04T03:54:43;93711.00;;;9.09;100.00
7834;BME280;3962;42.696;23.354;2023-04-04T03:57:09;93708.72;;;9.06;100.00
7834;BME280;3962;42.696;23.354;2023-04-04T03:59:38;93704.25;;;8.98;100.00
7834;BME280;3962;42.696;23.354;2023-04-04T04:02:05;93710.75;;;8.96;100.00
7834;BME280;3962;42.696;23.354;2023-04-04T04:04:32;93705.63;;;8.94;100.00
7834;BME280;3962;42.696;23.354;2023-04-04T04:06:58;93711.22;;;8.99;100.00
7834;BME280;3962;42.696;23.354;2023-04-04T04:09:26;93702.97;;;8.94;100.00
7834;BME280;3962;42.696;23.354;2023-04-04T04:11:53;93704.25;;;8.98;100.00
7834;BME280;3962;42.696;23.354;2023-04-04T04:14:20;93709.25;;;9.01;100.00
7834;BME280;3962;42.696;23.354;2023-04-04T04:16:49;93703.25;;;8.99;100.00
7834;BME280;3962;42.696;23.354;2023-04-04T04:19:15;93700.50;;;8.93;100.00
7834;BME280;3962;42.696;23.354;2023-04-04T04:21:42;93696.03;;;8.93;100.00
7834;BME280;3962;42.696;23.354;2023-04-04T04:24:09;93713.22;;;8.97;100.00
7834;BME280;3962;42.696;23.354;2023-04-04T04:26:36;93714.22;;;8.96;100.00
7834;BME280;3962;42.696;23.354;2023-04-04T04:29:03;93714.72;;;9.00;100.00
7834;BME280;3962;42.696;23.354;2023-04-04T04:31:30;93718.06;;;8.94;100.00
7834;BME280;3962;42.696;23.354;2023-04-04T04:33:58;93720.06;;;8.92;100.00
7834;BME280;3962;42.696;23.354;2023-04-04T04:36:25;93729.03;;;8.91;100.00
7834;BME280;3962;42.696;23.354;2023-04-04T04:38:52;93729.03;;;8.91;100.00
7834;BME280;3962;42.696;23.354;2023-04-04T04:41:19;93727.84;;;8.93;100.00
7834;BME280;3962;42.696;23.354;2023-04-04T04:43:46;93736.78;;;8.92;100.00
7834;BME280;3962;42.696;23.354;2023-04-04T04:46:13;93736.97;;;8.91;100.00
7834;BME280;3962;42.696;23.354;2023-04-04T04:48:40;93735.34;;;8.90;100.00
7834;BME280;3962;42.696;23.354;2023-04-04T04:51:08;93733.38;;;8.84;100.00
7834;BME280;3962;42.696;23.354;2023-04-04T04:53:35;93736.75;;;9.00;100.00
7834;BME280;3962;42.696;23.354;2023-04-04T04:56:01;93745.00;;;9.05;100.00
7834;BME280;3962;42.696;23.354;2023-04-04T04:58:30;93748.66;;;9.04;100.00
7834;BME280;3962;42.696;23.354;2023-04-04T05:00:57;93751.09;;;9.14;100.00
7834;BME280;3962;42.696;23.354;2023-04-04T05:03:24;93756.09;;;9.09;100.00
7834;BME280;3962;42.696;23.354;2023-04-04T05:05:52;93753.59;;;9.07;100.00
7834;BME280;3962;42.696;23.354;2023-04-04T05:08:20;93763.88;;;9.10;100.00
7834;BME280;3962;42.696;23.354;2023-04-04T05:10:48;93758.69;;;9.17;100.00
7834;BME280;3962;42.696;23.354;2023-04-04T05:13:15;93768.72;;;9.29;100.00
7834;BME280;3962;42.696;23.354;2023-04-04T05:15:44;93764.75;;;9.33;100.00
7834;BME280;3962;42.696;23.354;2023-04-04T05:18:11;93770.06;;;9.03;100.00
7834;BME280;3962;42.696;23.354;2023-04-04T05:20:38;93770.84;;;9.11;100.00
7834;BME280;3962;42.696;23.354;2023-04-04T05:23:05;93768.63;;;9.23;100.00
7834;BME280;3962;42.696;23.354;2023-04-04T05:25:33;93776.81;;;9.36;100.00
7834;BME280;3962;42.696;23.354;2023-04-04T05:28:00;93786.41;;;9.45;100.00
7834;BME280;3962;42.696;23.354;2023-04-04T05:30:28;93781.03;;;9.22;100.00
7834;BME280;3962;42.696;23.354;2023-04-04T05:32:55;93773.81;;;9.08;100.00
7834;BME280;3962;42.696;23.354;2023-04-04T05:35:22;93776.06;;;9.27;100.00
7834;BME280;3962;42.696;23.354;2023-04-04T05:37:49;93792.22;;;9.40;100.00
7834;BME280;3962;42.696;23.354;2023-04-04T05:40:16;93793.22;;;9.39;100.00
7834;BME280;3962;42.696;23.354;2023-04-04T05:42:52;93793.50;;;9.44;100.00
7834;BME280;3962;42.696;23.354;2023-04-04T05:45:19;93788.78;;;9.32;100.00
7834;BME280;3962;42.696;23.354;2023-04-04T05:47:46;93772.53;;;9.04;100.00
7834;BME280;3962;42.696;23.354;2023-04-04T05:50:13;93789.69;;;9.16;100.00
7834;BME280;3962;42.696;23.354;2023-04-04T05:52:40;93796.69;;;9.17;100.00
7834;BME280;3962;42.696;23.354;2023-04-04T05:55:07;93793.97;;;9.25;100.00
7834;BME280;3962;42.696;23.354;2023-04-04T05:57:34;93796.28;;;9.28;100.00
7834;BME280;3962;42.696;23.354;2023-04-04T06:00:03;93797.66;;;9.16;100.00
7834;BME280;3962;42.696;23.354;2023-04-04T06:02:31;93794.25;;;9.30;100.00
7834;BME280;3962;42.696;23.354;2023-04-04T06:04:57;93802.06;;;9.32;100.00
7834;BME280;3962;42.696;23.354;2023-04-04T06:07:24;93792.31;;;9.24;100.00
7834;BME280;3962;42.696;23.354;2023-04-04T06:09:51;93796.66;;;9.48;100.00
7834;BME280;3962;42.696;23.354;2023-04-04T06:12:18;93805.78;;;9.45;100.00
7834;BME280;3962;42.696;23.354;2023-04-04T06:14:45;93799.31;;;9.48;100.00
7834;BME280;3962;42.696;23.354;2023-04-04T06:17:13;93801.84;;;9.64;100.00
7834;BME280;3962;42.696;23.354;2023-04-04T06:19:40;93806.31;;;9.63;100.00
7834;BME280;3962;42.696;23.354;2023-04-04T06:22:07;93811.00;;;9.84;100.00
7834;BME280;3962;42.696;23.354;2023-04-04T06:24:34;93807.03;;;9.80;100.00
7834;BME280;3962;42.696;23.354;2023-04-04T06:27:00;93810.44;;;9.66;100.00
7834;BME280;3962;42.696;23.354;2023-04-04T06:29:28;93809.03;;;9.55;100.00
7834;BME280;3962;42.696;23.354;2023-04-04T06:31:55;93816.28;;;9.61;100.00
7834;BME280;3962;42.696;23.354;2023-04-04T06:34:24;93826.53;;;9.72;100.00
7834;BME280;3962;42.696;23.354;2023-04-04T06:36:50;93828.81;;;9.22;100.00
7834;BME280;3962;42.696;23.354;2023-04-04T06:39:17;93832.19;;;8.70;99.86
7834;BME280;3962;42.696;23.354;2023-04-04T06:41:44;93849.88;;;8.07;99.62
7834;BME280;3962;42.696;23.354;2023-04-04T06:44:12;93855.66;;;7.70;99.18
7834;BME280;3962;42.696;23.354;2023-04-04T06:46:39;93853.78;;;7.31;98.81
7834;BME280;3962;42.696;23.354;2023-04-04T06:49:06;93859.88;;;7.15;98.64
7834;BME280;3962;42.696;23.354;2023-04-04T06:51:34;93855.41;;;7.16;97.88
7834;BME280;3962;42.696;23.354;2023-04-04T06:54:01;93859.34;;;7.12;97.49
7834;BME280;3962;42.696;23.354;2023-04-04T06:56:28;93871.69;;;6.96;97.46
7834;BME280;3962;42.696;23.354;2023-04-04T06:58:55;93871.50;;;6.89;96.36
7834;BME280;3962;42.696;23.354;2023-04-04T07:01:22;93885.22;;;6.85;96.33
7834;BME280;3962;42.696;23.354;2023-04-04T07:03:51;93897.06;;;6.73;96.06
7834;BME280;3962;42.696;23.354;2023-04-04T07:06:18;93908.81;;;6.53;94.31
7834;BME280;3962;42.696;23.354;2023-04-04T07:08:49;93913.44;;;6.51;95.20
7834;BME280;3962;42.696;23.354;2023-04-04T07:11:16;93911.22;;;6.13;94.79
7834;BME280;3962;42.696;23.354;2023-04-04T07:13:43;93923.22;;;6.33;95.74
7834;BME280;3962;42.696;23.354;2023-04-04T07:16:10;93926.50;;;6.27;94.25
7834;BME280;3962;42.696;23.354;2023-04-04T07:18:37;93929.09;;;6.19;94.36
7834;BME280;3962;42.696;23.354;2023-04-04T07:21:04;93936.56;;;6.06;93.31
7834;BME280;3962;42.696;23.354;2023-04-04T07:23:31;93945.84;;;6.10;94.31
7834;BME280;3962;42.696;23.354;2023-04-04T07:25:59;93944.81;;;6.03;93.11
7834;BME280;3962;42.696;23.354;2023-04-04T07:28:27;93955.44;;;5.93;93.81
7834;BME280;3962;42.696;23.354;2023-04-04T07:30:53;93960.84;;;5.92;93.67
7834;BME280;3962;42.696;23.354;2023-04-04T07:33:20;93966.91;;;5.84;92.53
7834;BME280;3962;42.696;23.354;2023-04-04T07:35:47;93965.81;;;5.77;92.33
7834;BME280;3962;42.696;23.354;2023-04-04T07:38:14;93955.63;;;5.65;92.72
7834;BME280;3962;42.696;23.354;2023-04-04T07:40:40;93971.16;;;5.68;92.79
7834;BME280;3962;42.696;23.354;2023-04-04T07:43:09;93963.31;;;5.76;93.02
7834;BME280;3962;42.696;23.354;2023-04-04T07:45:36;93977.31;;;5.59;91.93
7834;BME280;3962;42.696;23.354;2023-04-04T07:48:03;93981.03;;;5.66;92.21
7834;BME280;3962;42.696;23.354;2023-04-04T07:50:30;93980.13;;;5.75;91.98
7834;BME280;3962;42.696;23.354;2023-04-04T07:52:57;93972.72;;;5.88;91.72
7834;BME280;3962;42.696;23.354;2023-04-04T07:55:23;93970.41;;;5.75;90.70
7834;BME280;3962;42.696;23.354;2023-04-04T07:57:50;93983.59;;;5.58;90.53
7834;BME280;3962;42.696;23.354;2023-04-04T08:00:20;93989.84;;;5.74;91.12
7834;BME280;3962;42.696;23.354;2023-04-04T08:02:50;93993.56;;;5.81;89.81
7834;BME280;3962;42.696;23.354;2023-04-04T08:05:17;93999.97;;;5.79;89.02
7834;BME280;3962;42.696;23.354;2023-04-04T08:07:44;94012.34;;;5.78;89.65
7834;BME280;3962;42.696;23.354;2023-04-04T08:10:11;94007.06;;;5.78;88.59
7834;BME280;3962;42.696;23.354;2023-04-04T08:12:41;94023.13;;;5.67;89.51
7834;BME280;3962;42.696;23.354;2023-04-04T08:15:09;94008.59;;;5.54;89.68
7834;BME280;3962;42.696;23.354;2023-04-04T08:17:38;93993.75;;;5.53;89.77
7834;BME280;3962;42.696;23.354;2023-04-04T08:20:08;94023.88;;;5.50;89.52
7834;BME280;3962;42.696;23.354;2023-04-04T08:22:35;94027.94;;;5.45;89.23
7834;BME280;3962;42.696;23.354;2023-04-04T08:25:02;94027.47;;;5.59;88.77
7834;BME280;3962;42.696;23.354;2023-04-04T08:27:29;94033.38;;;5.43;88.25
7834;BME280;3962;42.696;23.354;2023-04-04T08:29:57;94035.59;;;5.48;87.05
7834;BME280;3962;42.696;23.354;2023-04-04T08:32:23;94033.13;;;5.37;87.52
7834;BME280;3962;42.696;23.354;2023-04-04T08:34:52;94044.06;;;5.42;88.45
7834;BME280;3962;42.696;23.354;2023-04-04T08:37:18;94034.06;;;5.45;87.71
7834;BME280;3962;42.696;23.354;2023-04-04T08:39:45;94035.66;;;5.29;86.22
7834;BME280;3962;42.696;23.354;2023-04-04T08:42:12;94047.72;;;5.04;87.08
7834;BME280;3962;42.696;23.354;2023-04-04T08:44:43;94049.63;;;5.12;87.94
7834;BME280;3962;42.696;23.354;2023-04-04T08:47:11;94055.53;;;5.23;87.63
7834;BME280;3962;42.696;23.354;2023-04-04T08:49:42;94053.00;;;5.31;88.28
7834;BME280;3962;42.696;23.354;2023-04-04T08:52:11;94047.13;;;5.10;87.05
7834;BME280;3962;42.696;23.354;2023-04-04T08:54:39;94060.38;;;4.91;87.09
7834;BME280;3962;42.696;23.354;2023-04-04T08:57:07;94062.47;;;4.78;87.77
7834;BME280;3962;42.696;23.354;2023-04-04T08:59:34;94070.13;;;4.81;87.83
7834;BME280;3962;42.696;23.354;2023-04-04T09:02:12;94076.06;;;4.83;86.89
7834;BME280;3962;42.696;23.354;2023-04-04T09:04:41;94065.50;;;4.93;87.37
7834;BME280;3962;42.696;23.354;2023-04-04T09:07:10;94071.00;;;5.09;86.97
7834;BME280;3962;42.696;23.354;2023-04-04T09:09:38;94082.13;;;4.93;85.57
7834;BME280;3962;42.696;23.354;2023-04-04T09:12:06;94085.31;;;5.06;86.41
7834;BME280;3962;42.696;23.354;2023-04-04T09:14:35;94092.38;;;5.06;86.44
7834;BME280;3962;42.696;23.354;2023-04-04T09:17:03;94088.38;;;4.92;88.33
7834;BME280;3962;42.696;23.354;2023-04-04T09:19:30;94078.25;;;4.97;88.94
7834;BME280;3962;42.696;23.354;2023-04-04T09:21:57;94085.06;;;5.00;88.87
7834;BME280;3962;42.696;23.354;2023-04-04T09:24:36;94089.47;;;4.99;87.60
7834;BME280;3962;42.696;23.354;2023-04-04T09:27:03;94085.31;;;4.97;87.63
7834;BME280;3962;42.696;23.354;2023-04-04T09:29:32;94085.75;;;4.83;88.00
7834;BME280;3962;42.696;23.354;2023-04-04T09:31:59;94096.34;;;4.73;88.56
7834;BME280;3962;42.696;23.354;2023-04-04T09:34:27;94091.88;;;4.74;90.03
7834;BME280;3962;42.696;23.354;2023-04-04T09:36:54;94091.88;;;4.83;90.19
7834;BME280;3962;42.696;23.354;2023-04-04T09:39:22;94096.16;;;4.94;88.88
7834;BME280;3962;42.696;23.354;2023-04-04T09:41:50;94102.66;;;4.99;90.56
7834;BME280;3962;42.696;23.354;2023-04-04T09:44:17;94097.69;;;4.96;88.98
7834;BME280;3962;42.696;23.354;2023-04-04T09:46:44;94091.00;;;5.02;90.33
7834;BME280;3962;42.696;23.354;2023-04-04T09:49:18;94098.56;;;5.24;89.65
7834;BME280;3962;42.696;23.354;2023-04-04T09:51:47;94095.88;;;5.33;89.73
7834;BME280;3962;42.696;23.354;2023-04-04T09:54:21;94091.31;;;5.35;88.38
7834;BME280;3962;42.696;23.354;2023-04-04T09:56:49;94102.53;;;5.37;88.70
7834;BME280;3962;42.696;23.354;2023-04-04T09:59:18;94102.56;;;5.28;87.03
7834;BME280;3962;42.696;23.354;2023-04-04T10:01:45;94115.63;;;5.29;87.83
7834;BME280;3962;42.696;23.354;2023-04-04T10:04:17;94111.25;;;5.38;87.68
7834;BME280;3962;42.696;23.354;2023-04-04T10:06:44;94110.28;;;5.39;85.90
7834;BME280;3962;42.696;23.354;2023-04-04T10:09:11;94115.22;;;5.24;86.46
7834;BME280;3962;42.696;23.354;2023-04-04T10:11:38;94108.81;;;5.36;87.22
7834;BME280;3962;42.696;23.354;2023-04-04T10:14:05;94122.78;;;5.37;87.19
7834;BME280;3962;42.696;23.354;2023-04-04T10:16:33;94127.38;;;5.44;85.24
7834;BME280;3962;42.696;23.354;2023-04-04T10:19:03;94128.41;;;5.24;86.60
7834;BME280;3962;42.696;23.354;2023-04-04T10:21:30;94134.78;;;5.58;86.61
7834;BME280;3962;42.696;23.354;2023-04-04T10:23:57;94126.88;;;5.58;85.14
7834;BME280;3962;42.696;23.354;2023-04-04T10:26:26;94128.81;;;5.29;85.70
7834;BME280;3962;42.696;23.354;2023-04-04T10:28:53;94138.50;;;5.29;85.53
7834;BME280;3962;42.696;23.354;2023-04-04T10:31:22;94142.44;;;5.25;85.01
7834;BME280;3962;42.696;23.354;2023-04-04T10:34:03;94134.09;;;5.20;84.66
7834;BME280;3962;42.696;23.354;2023-04-04T10:36:39;94152.00;;;5.26;85.90
7834;BME280;3962;42.696;23.354;2023-04-04T10:39:12;94149.63;;;5.23;85.98
7834;BME280;3962;42.696;23.354;2023-04-04T10:41:40;94149.75;;;5.31;85.97
7834;BME280;3962;42.696;23.354;2023-04-04T10:44:11;94152.00;;;5.26;85.48
7834;BME280;3962;42.696;23.354;2023-04-04T10:46:41;94159.25;;;5.51;85.43
7834;BME280;3962;42.696;23.354;2023-04-04T10:49:10;94151.38;;;5.41;85.16
7834;BME280;3962;42.696;23.354;2023-04-04T10:51:38;94150.91;;;5.09;85.20
7834;BME280;3962;42.696;23.354;2023-04-04T10:54:05;94161.75;;;5.16;86.57
7834;BME280;3962;42.696;23.354;2023-04-04T10:56:33;94168.19;;;5.31;85.77
7834;BME280;3962;42.696;23.354;2023-04-04T10:59:08;94168.25;;;5.12;85.85
7834;BME280;3962;42.696;23.354;2023-04-04T11:01:50;94167.03;;;5.06;86.41
7834;BME280;3962;42.696;23.354;2023-04-04T11:04:29;94162.19;;;5.02;85.91
7834;BME280;3962;42.696;23.354;2023-04-04T11:07:07;94165.25;;;4.97;86.79
7834;BME280;3962;42.696;23.354;2023-04-04T11:09:53;94162.19;;;4.92;85.83
7834;BME280;3962;42.696;23.354;2023-04-04T11:12:21;94173.28;;;5.05;86.64
7834;BME280;3962;42.696;23.354;2023-04-04T11:14:56;94159.84;;;4.89;86.44
7834;BME280;3962;42.696;23.354;2023-04-04T11:17:39;94178.28;;;4.70;87.17
7834;BME280;3962;42.696;23.354;2023-04-04T11:20:08;94173.16;;;4.78;87.69
7834;BME280;3962;42.696;23.354;2023-04-04T11:22:36;94181.75;;;4.99;87.40
7834;BME280;3962;42.696;23.354;2023-04-04T11:25:33;94188.00;;;4.98;87.59
7834;BME280;3962;42.696;23.354;2023-04-04T11:28:23;94177.88;;;4.84;87.71
7834;BME280;3962;42.696;23.354;2023-04-04T11:31:24;94188.66;;;5.10;87.59
7834;BME280;3962;42.696;23.354;2023-04-04T11:33:57;94197.25;;;5.12;86.91
7834;BME280;3962;42.696;23.354;2023-04-04T11:36:51;94196.44;;;4.92;87.87
7834;BME280;3962;42.696;23.354;2023-04-04T11:39:25;94189.25;;;4.75;87.07
7834;BME280;3962;42.696;23.354;2023-04-04T11:41:56;94195.19;;;4.77;86.67
7834;BME280;3962;42.696;23.354;2023-04-04T11:44:29;94202.97;;;4.88;86.24
7834;BME280;3962;42.696;23.354;2023-04-04T11:47:01;94199.06;;;5.11;86.40
7834;BME280;3962;42.696;23.354;2023-04-04T11:49:36;94203.44;;;5.39;85.51
7834;BME280;3962;42.696;23.354;2023-04-04T11:52:08;94194.75;;;5.20;84.23
7834;BME280;3962;42.696;23.354;2023-04-04T11:54:36;94189.66;;;4.90;83.66
7834;BME280;3962;42.696;23.354;2023-04-04T11:57:04;94198.78;;;4.95;84.64
7834;BME280;3962;42.696;23.354;2023-04-04T11:59:37;94196.88;;;4.88;85.00
7834;BME280;3962;42.696;23.354;2023-04-04T12:02:05;94193.81;;;5.11;84.66
7834;BME280;3962;42.696;23.354;2023-04-04T12:04:32;94206.31;;;5.00;84.89
7834;BME280;3962;42.696;23.354;2023-04-04T12:06:59;94187.69;;;5.01;83.14
7834;BME280;3962;42.696;23.354;2023-04-04T12:09:28;94202.81;;;4.90;83.82
7834;BME280;3962;42.696;23.354;2023-04-04T12:11:57;94202.44;;;4.85;84.72
7834;BME280;3962;42.696;23.354;2023-04-04T12:14:24;94204.22;;;4.94;84.82
7834;BME280;3962;42.696;23.354;2023-04-04T12:16:53;94190.50;;;5.00;84.77
7834;BME280;3962;42.696;23.354;2023-04-04T12:19:21;94192.53;;;5.06;83.48
7834;BME280;3962;42.696;23.354;2023-04-04T12:21:49;94208.09;;;4.71;83.47
7834;BME280;3962;42.696;23.354;2023-04-04T12:24:17;94203.22;;;4.76;84.01
7834;BME280;3962;42.696;23.354;2023-04-04T12:26:48;94213.09;;;4.55;83.94
7834;BME280;3962;42.696;23.354;2023-04-04T12:29:17;94211.56;;;4.52;84.17
7834;BME280;3962;42.696;23.354;2023-04-04T12:31:45;94207.69;;;4.47;84.23
7834;BME280;3962;42.696;23.354;2023-04-04T12:34:17;94210.59;;;4.53;84.24
7834;BME280;3962;42.696;23.354;2023-04-04T12:36:46;94206.69;;;4.29;84.42
7834;BME280;3962;42.696;23.354;2023-04-04T12:39:15;94213.63;;;4.49;84.99
7834;BME280;3962;42.696;23.354;2023-04-04T12:41:52;94216.25;;;4.39;85.05
7834;BME280;3962;42.696;23.354;2023-04-04T12:44:26;94219.06;;;4.66;85.02
7834;BME280;3962;42.696;23.354;2023-04-04T12:46:56;94221.69;;;4.57;84.53
7834;BME280;3962;42.696;23.354;2023-04-04T12:49:27;94219.59;;;4.41;85.61
7834;BME280;3962;42.696;23.354;2023-04-04T12:51:55;94221.25;;;4.42;84.68
7834;BME280;3962;42.696;23.354;2023-04-04T12:54:26;94218.72;;;4.31;86.22
7834;BME280;3962;42.696;23.354;2023-04-04T12:56:55;94219.84;;;4.29;85.78
7834;BME280;3962;42.696;23.354;2023-04-04T12:59:23;94229.75;;;4.06;85.02
7834;BME280;3962;42.696;23.354;2023-04-04T13:01:53;94223.53;;;4.07;85.01
7834;BME280;3962;42.696;23.354;2023-04-04T13:04:20;94234.38;;;4.14;84.90
7834;BME280;3962;42.696;23.354;2023-04-04T13:06:49;94224.78;;;4.03;84.91
7834;BME280;3962;42.696;23.354;2023-04-04T13:09:17;94231.97;;;4.11;85.57
7834;BME280;3962;42.696;23.354;2023-04-04T13:11:59;94238.66;;;4.15;84.66
7834;BME280;3962;42.696;23.354;2023-04-04T13:14:28;94259.50;;;3.97;84.84
7834;BME280;3962;42.696;23.354;2023-04-04T13:17:17;94243.84;;;3.56;86.53
7834;BME280;3962;42.696;23.354;2023-04-04T13:19:44;94250.94;;;3.65;87.44
7834;BME280;3962;42.696;23.354;2023-04-04T13:22:11;94257.28;;;3.63;87.08
7834;BME280;3962;42.696;23.354;2023-04-04T13:24:38;94255.44;;;3.84;87.73